Allerton, New York
Current Conditions -  °F | °C
As of 7:51 AM on Saturday 20 Dec 2014 (Local Time) from KLGA Reporting Station
Overcast Overcast  
Wind Chill: -5°   Ceiling: 2600
Heat Index: -1°   Visibility: 10mi
Dew Point: -6°   Wind: 10mph
Humidity: 67%   Direction: 360°N
Pressure: 30.27"   Gusts: NA
Location:  40.8778°N, 73.8721°W
Report Text: KLGA 201251Z 36009KT 10SM OVC026 M01/M06 A3027 RMK AO2 SLP249 T10061061
Loading
Personal Weather Stations






























Interactive Weather Map New forecast layout! Learn more

10-Day Weather Forecast

Advertisements
Track Severe Weather on mobile